Time;durP1;ratioP1;P1;durP2;ratioP2;P2;SDS_P1;SDS_P2;PMS_P1;PMS_P2;Temp;Humidity;BMP_temperature;BMP_pressure;BME280_temperature;BME280_humidity;BME280_pressure;Samples;Min_cycle;Max_cycle;Signal;HPM_P1;HPM_P2
2020/12/08 00:00:34;;;;;;;14.23;9.03;;;;;;;4.15;92.27;99855.84;4944072;28;20226;-73
2020/12/08 00:03:00;;;;;;;16.43;10.13;;;;;;;4.17;93.03;99844.66;4950783;28;20219;-73
2020/12/08 00:05:26;;;;;;;20.23;11.97;;;;;;;4.21;93.53;99845.47;4942810;28;20209;-73
2020/12/08 00:07:52;;;;;;;19.47;13.03;;;;;;;4.28;94.38;99841.94;4941552;28;20262;-73
2020/12/08 00:10:19;;;;;;;19.47;11.90;;;;;;;4.35;94.74;99846.16;4943314;29;20616;-73
2020/12/08 00:12:47;;;;;;;20.20;12.77;;;;;;;4.46;94.89;99840.84;4950972;29;20732;-73
2020/12/08 00:15:13;;;;;;;24.37;14.33;;;;;;;4.49;94.72;99833.06;4939467;28;20553;-73
2020/12/08 00:17:39;;;;;;;22.53;14.00;;;;;;;4.54;94.90;99830.44;4948514;29;20207;-73
2020/12/08 00:20:07;;;;;;;25.53;14.33;;;;;;;4.55;94.89;99834.69;4945889;28;20306;-73
2020/12/08 00:22:33;;;;;;;22.70;14.40;;;;;;;4.59;94.84;99832.91;4948989;28;20709;-73
2020/12/08 00:24:59;;;;;;;22.57;13.63;;;;;;;4.64;94.91;99837.13;4943949;28;20208;-73
2020/12/08 00:27:24;;;;;;;26.80;14.50;;;;;;;4.68;94.84;99836.25;4949335;28;20238;-73
2020/12/08 00:29:51;;;;;;;24.20;14.83;;;;;;;4.70;94.66;99837.06;4950838;28;20199;-73
2020/12/08 00:32:17;;;;;;;30.33;15.67;;;;;;;4.75;94.43;99829.25;4941129;28;20227;-73
2020/12/08 00:34:43;;;;;;;25.23;15.17;;;;;;;4.78;94.69;99825.75;4950365;28;20222;-73
2020/12/08 00:37:09;;;;;;;29.97;15.43;;;;;;;4.80;94.43;99832.63;4948085;28;20262;-73
2020/12/08 00:39:35;;;;;;;28.30;15.93;;;;;;;4.85;94.37;99835.13;4943418;28;20226;-73
2020/12/08 00:42:01;;;;;;;26.97;15.03;;;;;;;4.85;94.46;99835.13;4941703;28;20299;-73
2020/12/08 00:44:27;;;;;;;30.40;17.47;;;;;;;4.87;94.36;99829.06;4945485;28;20288;-73
2020/12/08 00:46:54;;;;;;;30.57;17.80;;;;;;;4.88;94.48;99817.84;4961101;28;20202;-73
2020/12/08 00:49:21;;;;;;;38.03;21.03;;;;;;;4.89;94.57;99816.09;4944607;28;20561;-73
2020/12/08 00:51:47;;;;;;;45.40;23.40;;;;;;;4.88;94.46;99807.50;4961097;28;20293;-74
2020/12/08 00:54:14;;;;;;;38.77;19.70;;;;;;;4.88;94.65;99810.09;4939349;29;20247;-73
2020/12/08 00:56:40;;;;;;;36.53;20.37;;;;;;;4.88;94.58;99809.25;4963114;28;20199;-73
2020/12/08 00:59:06;;;;;;;38.27;21.03;;;;;;;4.87;94.66;99811.00;4935314;28;20592;-73
2020/12/08 01:01:32;;;;;;;57.03;31.27;;;;;;;4.86;94.83;99803.25;4948619;28;20226;-73
2020/12/08 01:04:02;;;;;;;35.20;20.47;;;;;;;4.85;94.52;99807.56;4941503;28;20289;-73
2020/12/08 01:06:28;;;;;;;35.30;20.30;;;;;;;4.84;94.75;99805.03;4945856;28;20205;-73
2020/12/08 01:08:55;;;;;;;32.33;20.10;;;;;;;4.82;94.88;99807.63;4947407;28;20199;-74
2020/12/08 01:11:21;;;;;;;39.17;20.77;;;;;;;4.81;95.10;99813.66;4949777;28;20572;-74
2020/12/08 01:13:47;;;;;;;38.17;20.20;;;;;;;4.81;94.96;99805.91;4944936;29;21042;-77
2020/12/08 01:16:23;;;;;;;36.77;19.57;;;;;;;4.80;94.94;99813.66;4940281;29;20206;-74
2020/12/08 01:18:51;;;;;;;35.53;18.97;;;;;;;4.79;94.90;99810.25;4939050;28;20198;-74
2020/12/08 01:21:17;;;;;;;33.73;18.93;;;;;;;4.78;95.02;99811.09;4953582;28;20275;-74
2020/12/08 01:23:46;;;;;;;33.60;19.73;;;;;;;4.76;95.49;99809.44;4963199;28;20242;-74
2020/12/08 01:26:20;;;;;;;34.03;19.27;;;;;;;4.72;95.23;99800.88;4950453;28;20202;-73
2020/12/08 01:28:46;;;;;;;37.17;19.27;;;;;;;4.68;95.22;99807.84;4966793;28;20206;-74
2020/12/08 01:31:12;;;;;;;30.73;19.00;;;;;;;4.63;95.15;99811.38;4949170;28;20245;-74
2020/12/08 01:33:38;;;;;;;34.83;20.33;;;;;;;4.59;95.63;99802.81;4963375;28;20293;-74
2020/12/08 01:36:04;;;;;;;35.30;20.13;;;;;;;4.58;95.75;99808.84;4949855;28;20698;-74
2020/12/08 01:38:31;;;;;;;34.57;20.70;;;;;;;4.60;95.77;99817.41;4965680;28;20736;-74
2020/12/08 01:40:57;;;;;;;35.10;22.20;;;;;;;4.61;95.66;99813.09;4945811;28;20486;-74
2020/12/08 01:43:26;;;;;;;36.97;19.93;;;;;;;4.60;95.54;99807.09;4948741;28;20699;-74
2020/12/08 01:45:53;;;;;;;35.33;20.07;;;;;;;4.62;96.17;99809.66;4942517;28;20211;-74
2020/12/08 01:48:19;;;;;;;31.10;18.90;;;;;;;4.64;95.73;99807.88;4946467;28;20203;-74
2020/12/08 01:50:47;;;;;;;36.50;21.57;;;;;;;4.64;95.98;99806.16;4951669;28;20195;-74
2020/12/08 01:53:15;;;;;;;36.33;21.43;;;;;;;4.66;95.78;99822.50;4924770;29;20694;-73
2020/12/08 01:55:47;;;;;;;44.77;25.03;;;;;;;4.66;96.04;99808.72;4946489;29;20195;-74
2020/12/08 01:58:15;;;;;;;36.37;20.03;;;;;;;4.65;95.90;99820.78;4948693;28;20205;-74
2020/12/08 02:00:42;;;;;;;36.33;19.20;;;;;;;4.65;95.71;99819.94;4949079;28;20231;-74
2020/12/08 02:03:09;;;;;;;35.33;19.30;;;;;;;4.63;95.54;99819.13;4951124;28;20745;-73
2020/12/08 02:05:39;;;;;;;36.07;19.67;;;;;;;4.61;95.78;99819.13;4943493;28;20203;-74
2020/12/08 02:08:06;;;;;;;33.97;20.07;;;;;;;4.61;96.06;99826.00;4948018;28;20201;-74
2020/12/08 02:10:36;;;;;;;42.83;25.50;;;;;;;4.62;95.71;99830.31;4962306;28;20195;-74
2020/12/08 02:13:06;;;;;;;34.77;19.93;;;;;;;4.60;95.60;99819.16;4950080;28;20219;-74
2020/12/08 02:15:32;;;;;;;37.73;18.60;;;;;;;4.61;95.89;99813.09;4940681;29;20277;-74
2020/12/08 02:18:00;;;;;;;38.50;20.27;;;;;;;4.58;96.14;99818.31;4949844;28;20205;-74
2020/12/08 02:20:28;;;;;;;34.10;19.17;;;;;;;4.55;95.80;99817.47;4958105;28;20211;-74
2020/12/08 02:22:55;;;;;;;39.77;20.53;;;;;;;4.54;95.84;99820.94;4945213;29;20245;-74
2020/12/08 02:25:21;;;;;;;34.10;20.63;;;;;;;4.53;96.09;99815.78;4938003;29;20194;-75
2020/12/08 02:27:47;;;;;;;36.90;19.50;;;;;;;4.52;95.92;99814.06;4924145;29;20215;-74
2020/12/08 02:30:13;;;;;;;37.87;19.97;;;;;;;4.49;96.18;99811.56;4948549;28;20230;-74
2020/12/08 02:32:40;;;;;;;35.37;21.37;;;;;;;4.46;95.79;99816.75;4954125;28;20254;-74
2020/12/08 02:35:07;;;;;;;37.57;19.40;;;;;;;4.44;95.87;99803.88;4959659;28;20261;-72
2020/12/08 02:37:35;;;;;;;41.77;20.63;;;;;;;4.42;96.22;99805.63;4941523;28;20751;-73
2020/12/08 02:40:01;;;;;;;39.53;20.20;;;;;;;4.40;96.21;99802.22;4946871;28;20214;-73
2020/12/08 02:42:27;;;;;;;38.23;19.97;;;;;;;4.36;95.83;99804.00;4939937;28;20270;-74
2020/12/08 02:44:53;;;;;;;39.07;20.80;;;;;;;4.36;95.90;99813.44;4941716;29;20199;-74
2020/12/08 02:47:20;;;;;;;37.33;19.30;;;;;;;4.33;95.70;99816.09;4943459;28;20642;-74
2020/12/08 02:49:46;;;;;;;37.50;18.87;;;;;;;4.31;95.75;99816.09;4944432;29;20691;-74
2020/12/08 02:52:15;;;;;;;38.27;19.77;;;;;;;4.29;95.82;99812.69;4934774;29;20230;-73
2020/12/08 02:54:45;;;;;;;36.57;19.93;;;;;;;4.28;95.54;99813.56;4947056;28;20228;-74
2020/12/08 02:57:11;;;;;;;39.17;20.63;;;;;;;4.26;96.12;99807.56;4939162;28;20206;-74
2020/12/08 02:59:40;;;;;;;35.67;19.70;;;;;;;4.21;95.59;99805.94;4948208;28;20195;-73
2020/12/08 03:02:08;;;;;;;34.87;19.73;;;;;;;4.13;95.94;99804.31;4944238;29;20272;-74
2020/12/08 03:04:42;;;;;;;43.10;20.17;;;;;;;4.08;96.21;99808.66;4938752;28;20210;-74
2020/12/08 03:07:11;;;;;;;35.47;19.60;;;;;;;4.06;95.88;99812.13;4948456;29;20203;-74
2020/12/08 03:09:37;;;;;;;38.70;20.33;;;;;;;4.02;96.21;99820.78;4941095;28;20211;-74
2020/12/08 03:12:07;;;;;;;38.47;20.00;;;;;;;3.99;96.14;99821.66;4943333;29;20222;-74
2020/12/08 03:14:32;;;;;;;40.37;20.17;;;;;;;3.96;96.20;99825.13;4941418;28;20195;-73
2020/12/08 03:16:59;;;;;;;34.67;19.43;;;;;;;3.93;96.38;99834.63;4952205;28;20659;-73
2020/12/08 03:19:28;;;;;;;36.73;19.87;;;;;;;3.91;96.31;99834.66;4949911;28;20230;-74
2020/12/08 03:21:54;;;;;;;38.47;20.10;;;;;;;3.89;96.42;99833.81;4940600;29;20194;-74
2020/12/08 03:24:37;;;;;;;37.97;19.10;;;;;;;3.89;96.22;99822.66;4943353;28;20356;-74
2020/12/08 03:27:06;;;;;;;35.80;19.87;;;;;;;3.89;96.59;99836.41;4962563;28;20218;-74
2020/12/08 03:29:32;;;;;;;43.47;21.93;;;;;;;3.88;96.60;99834.66;4945486;28;20293;-73
2020/12/08 03:32:02;;;;;;;37.33;19.17;;;;;;;3.87;96.55;99829.53;4957890;28;20221;-74
2020/12/08 03:34:29;;;;;;;36.27;19.57;;;;;;;3.86;96.56;99833.84;4948893;28;20734;-75
2020/12/08 03:36:55;;;;;;;37.17;19.77;;;;;;;3.85;96.41;99836.44;4950806;28;20194;-76
2020/12/08 03:39:21;;;;;;;39.93;20.43;;;;;;;3.83;96.73;99835.59;4950956;28;20191;-76
2020/12/08 03:41:46;;;;;;;37.87;19.17;;;;;;;3.81;96.46;99838.19;4944339;28;20207;-76
2020/12/08 03:44:13;;;;;;;39.30;19.90;;;;;;;3.79;96.37;99838.22;4950223;28;20230;-76
2020/12/08 03:46:40;;;;;;;35.57;19.37;;;;;;;3.77;96.44;99831.38;4949045;28;20241;-76
2020/12/08 03:49:08;;;;;;;38.00;19.43;;;;;;;3.76;96.66;99827.06;4942462;28;20229;-76
2020/12/08 03:51:36;;;;;;;41.50;20.33;;;;;;;3.72;96.54;99815.09;4942376;29;20630;-76
2020/12/08 03:54:09;;;;;;;41.63;20.37;;;;;;;3.71;96.29;99821.09;4944970;28;20283;-75
2020/12/08 03:56:44;;;;;;;41.77;19.20;;;;;;;3.69;96.29;99821.13;4945740;29;20295;-76
2020/12/08 03:59:10;;;;;;;39.97;20.80;;;;;;;3.66;96.33;99815.16;4944736;28;20203;-76
2020/12/08 04:01:37;;;;;;;39.53;20.63;;;;;;;3.64;96.33;99824.63;4949499;28;20664;-76
2020/12/08 04:04:04;;;;;;;44.07;21.63;;;;;;;3.63;96.52;99822.94;4941334;28;20203;-76
2020/12/08 04:06:31;;;;;;;34.33;18.07;;;;;;;3.60;96.52;99821.22;4946889;28;20230;-76
2020/12/08 04:08:58;;;;;;;41.07;19.83;;;;;;;3.58;96.41;99822.97;4943338;28;20194;-76
2020/12/08 04:11:32;;;;;;;38.87;20.17;;;;;;;3.55;96.51;99818.72;4948444;28;20195;-76
2020/12/08 04:13:58;;;;;;;38.60;20.23;;;;;;;3.51;96.19;99818.75;4946684;28;20282;-75
2020/12/08 04:16:24;;;;;;;40.57;19.83;;;;;;;3.47;96.48;99822.25;4940191;28;20199;-75
2020/12/08 04:18:55;;;;;;;36.77;19.57;;;;;;;3.45;96.47;99821.38;4949285;28;20739;-76
2020/12/08 04:21:23;;;;;;;37.43;19.13;;;;;;;3.42;96.55;99819.69;4939484;28;20766;-76
2020/12/08 04:23:51;;;;;;;39.63;19.83;;;;;;;3.38;96.33;99823.19;4958728;28;20246;-76
2020/12/08 04:26:17;;;;;;;40.93;20.17;;;;;;;3.37;96.76;99827.47;4948342;29;20237;-76
2020/12/08 04:28:46;;;;;;;40.20;21.77;;;;;;;3.37;96.68;99834.34;4960058;28;20223;-76
2020/12/08 04:31:16;;;;;;;40.13;20.37;;;;;;;3.40;96.93;99842.06;4944788;29;20339;-76
2020/12/08 04:33:43;;;;;;;36.80;19.13;;;;;;;3.40;96.49;99842.91;4949938;29;20214;-76
2020/12/08 04:36:14;;;;;;;43.70;21.63;;;;;;;3.41;96.85;99851.47;4944795;28;20219;-76
2020/12/08 04:38:40;;;;;;;39.27;21.60;;;;;;;3.42;96.46;99853.19;4945094;29;20191;-76
2020/12/08 04:41:06;;;;;;;34.83;19.60;;;;;;;3.42;96.38;99854.03;4942647;28;20306;-76
2020/12/08 04:43:32;;;;;;;41.47;21.63;;;;;;;3.44;96.40;99853.19;4950557;29;20218;-76
2020/12/08 04:45:59;;;;;;;40.57;20.27;;;;;;;3.45;96.22;99848.03;4944836;28;20204;-76
2020/12/08 04:48:27;;;;;;;40.00;20.87;;;;;;;3.46;96.17;99848.88;4948382;28;20278;-76
2020/12/08 04:50:52;;;;;;;40.87;20.77;;;;;;;3.47;95.87;99858.31;4950308;28;20214;-76
2020/12/08 04:53:21;;;;;;;39.33;20.23;;;;;;;3.47;96.27;99856.59;4950650;28;20253;-76
2020/12/08 04:55:47;;;;;;;41.80;20.43;;;;;;;3.46;96.37;99857.44;4951277;28;20203;-75
2020/12/08 04:58:13;;;;;;;39.67;20.90;;;;;;;3.45;96.31;99860.03;4937221;29;20233;-75
2020/12/08 05:00:40;;;;;;;40.27;19.57;;;;;;;3.42;96.60;99861.78;4935940;28;20210;-76
2020/12/08 05:03:06;;;;;;;37.50;19.93;;;;;;;3.41;96.18;99851.47;4950319;28;20431;-76
2020/12/08 05:05:39;;;;;;;40.50;20.17;;;;;;;3.38;95.91;99862.69;4944160;28;20197;-76
2020/12/08 05:08:13;;;;;;;40.30;19.70;;;;;;;3.34;96.42;99858.44;4943867;29;20205;-76
2020/12/08 05:10:40;;;;;;;36.93;19.63;;;;;;;3.30;96.42;99864.47;4942414;29;20213;-76
2020/12/08 05:13:06;;;;;;;41.47;19.63;;;;;;;3.26;96.41;99869.69;4948182;28;20241;-76
2020/12/08 05:15:32;;;;;;;36.67;18.80;;;;;;;3.22;96.26;99863.69;4942425;29;20199;-75
2020/12/08 05:18:08;;;;;;;40.23;19.97;;;;;;;3.17;96.61;99863.72;4948015;28;20514;-76
2020/12/08 05:20:34;;;;;;;40.30;19.83;;;;;;;3.13;96.43;99864.63;4959660;28;20309;-76
2020/12/08 05:23:01;;;;;;;39.87;19.80;;;;;;;3.05;96.63;99874.13;4951002;28;20218;-76
2020/12/08 05:25:28;;;;;;;39.50;19.80;;;;;;;3.00;96.96;99870.72;4940411;29;20203;-76
2020/12/08 05:27:56;;;;;;;36.80;18.83;;;;;;;2.90;96.92;99866.50;4931254;29;20214;-75
2020/12/08 05:30:23;;;;;;;37.33;19.00;;;;;;;2.82;96.96;99866.56;4944516;28;20194;-75
2020/12/08 05:32:49;;;;;;;37.27;19.53;;;;;;;2.75;97.53;99873.47;4923557;29;20246;-76
2020/12/08 05:35:17;;;;;;;37.73;19.83;;;;;;;2.69;97.83;99875.22;4939588;28;20302;-75
2020/12/08 05:37:45;;;;;;;38.73;19.70;;;;;;;2.66;98.13;99881.25;4936028;29;20731;-75
2020/12/08 05:40:13;;;;;;;38.90;18.93;;;;;;;2.60;98.03;99876.13;4944421;29;20206;-75
2020/12/08 05:42:40;;;;;;;40.37;20.00;;;;;;;2.56;98.35;99889.88;4934120;29;20229;-75
2020/12/08 05:45:09;;;;;;;40.37;18.77;;;;;;;2.50;98.10;99895.91;4938372;28;20198;-76
2020/12/08 05:47:44;;;;;;;38.67;19.43;;;;;;;2.40;97.72;99895.09;4938196;29;20198;-76
2020/12/08 05:50:13;;;;;;;39.60;19.73;;;;;;;2.28;97.83;99903.69;4938008;28;20195;-76
2020/12/08 05:52:40;;;;;;;34.80;18.07;;;;;;;2.20;98.39;99907.16;4933867;29;20227;-76
2020/12/08 05:55:11;;;;;;;33.43;17.80;;;;;;;2.11;98.41;99900.34;4949544;28;20217;-76
2020/12/08 05:57:37;;;;;;;33.93;17.30;;;;;;;2.06;98.79;99902.09;4942896;28;20217;-76
2020/12/08 06:00:06;;;;;;;35.80;17.53;;;;;;;1.95;98.91;99904.66;4941972;28;20205;-76
2020/12/08 06:02:38;;;;;;;36.20;18.17;;;;;;;1.84;98.90;99903.84;4947308;29;20222;-76
2020/12/08 06:05:04;;;;;;;36.63;17.97;;;;;;;1.75;99.56;99897.00;4945727;28;20663;-76
2020/12/08 06:07:32;;;;;;;42.67;19.87;;;;;;;1.71;99.50;99905.59;4947029;29;20238;-75
2020/12/08 06:10:09;;;;;;;33.30;18.10;;;;;;;1.61;99.87;99902.16;4946403;28;20204;-76
2020/12/08 06:12:38;;;;;;;39.07;18.80;;;;;;;1.59;100.00;99897.88;4948305;28;20537;-76
2020/12/08 06:15:15;;;;;;;37.00;18.27;;;;;;;1.50;100.00;99904.75;4939950;28;20842;-75
2020/12/08 06:17:46;;;;;;;34.37;17.00;;;;;;;1.41;100.00;99907.31;4947643;29;20208;-76
2020/12/08 06:20:12;;;;;;;40.83;18.60;;;;;;;1.38;100.00;99909.88;4939567;28;20579;-76
2020/12/08 06:22:37;;;;;;;41.37;18.43;;;;;;;1.34;100.00;99908.19;4937495;29;20223;-76
2020/12/08 06:25:03;;;;;;;38.23;19.57;;;;;;;1.33;100.00;99909.88;4940404;28;20248;-74
2020/12/08 06:27:29;;;;;;;36.30;18.17;;;;;;;1.29;100.00;99909.88;4933586;29;20281;-76
2020/12/08 06:29:56;;;;;;;34.10;17.47;;;;;;;1.29;100.00;99920.16;4945077;28;20730;-76
2020/12/08 06:32:26;;;;;;;42.40;18.60;;;;;;;1.30;100.00;99911.59;4942009;28;20244;-76
2020/12/08 06:35:04;;;;;;;38.90;18.60;;;;;;;1.31;100.00;99913.31;4942515;28;20223;-75
2020/12/08 06:37:30;;;;;;;39.27;18.70;;;;;;;1.32;100.00;99912.47;4944785;28;20197;-76
2020/12/08 06:40:06;;;;;;;36.47;17.83;;;;;;;1.27;100.00;99917.59;4944430;29;20211;-76
2020/12/08 06:42:32;;;;;;;39.17;18.87;;;;;;;1.25;100.00;99921.88;4933389;28;20770;-76
2020/12/08 06:45:06;;;;;;;39.87;19.23;;;;;;;1.20;100.00;99927.88;4936663;28;20214;-75
2020/12/08 06:47:32;;;;;;;43.60;19.10;;;;;;;1.18;100.00;99926.97;4943003;28;20558;-75
2020/12/08 06:49:57;;;;;;;37.10;18.83;;;;;;;1.13;100.00;99940.69;4942562;28;20230;-75
2020/12/08 06:52:24;;;;;;;37.97;19.20;;;;;;;1.15;100.00;99944.97;4948220;28;20220;-75
2020/12/08 06:54:57;;;;;;;39.37;19.53;;;;;;;1.22;100.00;99941.56;4946986;29;20287;-75
2020/12/08 06:57:23;;;;;;;38.53;19.33;;;;;;;1.23;100.00;99936.44;4941981;28;20213;-75
2020/12/08 06:59:48;;;;;;;44.30;19.63;;;;;;;1.18;100.00;99940.69;4962440;28;20215;-75
2020/12/08 07:02:14;;;;;;;41.47;19.63;;;;;;;1.12;100.00;99938.97;4943721;28;20296;-75
2020/12/08 07:04:41;;;;;;;44.07;19.57;;;;;;;1.03;100.00;99945.81;4947150;29;20269;-75
2020/12/08 07:07:07;;;;;;;43.40;19.77;;;;;;;0.94;100.00;99942.34;4938963;28;20200;-75
2020/12/08 07:09:34;;;;;;;35.97;18.00;;;;;;;0.87;100.00;99948.34;4948508;28;20209;-75
2020/12/08 07:12:00;;;;;;;37.97;19.13;;;;;;;0.86;100.00;99945.75;4944663;28;20231;-75
2020/12/08 07:14:28;;;;;;;43.30;19.43;;;;;;;0.85;100.00;99950.03;4947107;28;20203;-75
2020/12/08 07:16:54;;;;;;;40.30;18.93;;;;;;;0.85;100.00;99955.19;4937192;28;20603;-75
2020/12/08 07:19:20;;;;;;;40.17;19.40;;;;;;;0.85;100.00;99970.56;4947801;28;20281;-75
2020/12/08 07:21:56;;;;;;;45.73;20.70;;;;;;;0.83;100.00;99963.75;4940296;28;20223;-75
2020/12/08 07:24:24;;;;;;;38.33;19.30;;;;;;;0.85;100.00;99962.88;4938135;29;20187;-75
2020/12/08 07:26:50;;;;;;;43.23;19.97;;;;;;;0.84;100.00;99965.44;4945410;28;20268;-75
2020/12/08 07:29:16;;;;;;;39.47;19.37;;;;;;;0.86;100.00;99966.28;4948869;28;20199;-75
2020/12/08 07:31:46;;;;;;;45.13;20.53;;;;;;;0.89;100.00;99969.72;4944883;28;20216;-75
2020/12/08 07:34:13;;;;;;;43.33;20.53;;;;;;;0.93;100.00;99971.47;4941206;28;20205;-75
2020/12/08 07:36:39;;;;;;;42.07;19.77;;;;;;;0.93;100.00;99980.84;4941322;29;20728;-75
2020/12/08 07:39:15;;;;;;;43.97;19.50;;;;;;;0.92;100.00;99974.88;4945941;29;20283;-75
2020/12/08 07:41:41;;;;;;;39.23;18.93;;;;;;;0.91;100.00;99970.56;4930643;29;20238;-75
2020/12/08 07:44:12;;;;;;;46.17;21.13;;;;;;;0.92;100.00;99976.59;4936129;29;20214;-75
2020/12/08 07:46:47;;;;;;;47.67;20.93;;;;;;;0.91;100.00;99974.88;4943142;29;20251;-75
2020/12/08 07:49:12;;;;;;;56.43;24.90;;;;;;;0.91;100.00;99985.97;4937526;28;20195;-75
2020/12/08 07:51:38;;;;;;;65.50;29.33;;;;;;;0.92;100.00;99992.84;4937566;29;20220;-75
2020/12/08 07:54:05;;;;;;;72.83;36.37;;;;;;;0.95;100.00;99986.88;4936718;28;20267;-75
2020/12/08 07:56:32;;;;;;;49.47;24.37;;;;;;;0.99;100.00;99982.59;4936075;29;20254;-75
2020/12/08 07:58:59;;;;;;;45.07;22.27;;;;;;;1.04;100.00;99984.31;4933000;29;20209;-75
2020/12/08 08:01:26;;;;;;;47.83;24.57;;;;;;;1.05;100.00;99985.19;4936474;29;20211;-75
2020/12/08 08:03:53;;;;;;;48.20;23.37;;;;;;;1.09;100.00;99986.88;4934937;28;20225;-75
2020/12/08 08:06:22;;;;;;;56.57;23.43;;;;;;;1.12;100.00;99986.91;4933009;28;20224;-75
2020/12/08 08:08:49;;;;;;;48.17;22.57;;;;;;;1.12;100.00;99984.34;4930718;29;20215;-75
2020/12/08 08:11:16;;;;;;;47.37;21.67;;;;;;;1.13;100.00;99989.47;4928946;29;20287;-75
2020/12/08 08:13:42;;;;;;;62.33;27.83;;;;;;;1.17;100.00;99987.78;4935461;29;20216;-75
2020/12/08 08:16:09;;;;;;;57.60;26.80;;;;;;;1.18;100.00;99988.63;4932392;29;20207;-75
2020/12/08 08:18:37;;;;;;;54.67;24.77;;;;;;;1.22;100.00;99995.50;4930879;29;20209;-75
2020/12/08 08:21:03;;;;;;;56.53;26.17;;;;;;;1.25;100.00;99993.78;4935053;29;20793;-75
2020/12/08 08:23:30;;;;;;;50.10;22.63;;;;;;;1.26;100.00;99992.91;4924580;28;20222;-75
2020/12/08 08:25:56;;;;;;;52.13;26.07;;;;;;;1.30;100.00;100006.63;4949265;28;20216;-75
2020/12/08 08:28:22;;;;;;;46.40;24.27;;;;;;;1.31;100.00;99998.06;4933217;29;20195;-75
2020/12/08 08:30:48;;;;;;;60.93;26.47;;;;;;;1.35;100.00;100004.06;4938238;29;20279;-75
2020/12/08 08:33:13;;;;;;;60.20;25.40;;;;;;;1.39;100.00;100011.78;4924791;29;20248;-75
2020/12/08 08:35:40;;;;;;;56.17;26.13;;;;;;;1.39;100.00;100005.78;4931244;29;20204;-75
2020/12/08 08:38:06;;;;;;;52.73;24.57;;;;;;;1.37;100.00;100008.34;4933263;28;20207;-75
2020/12/08 08:40:32;;;;;;;162.90;75.00;;;;;;;1.36;100.00;100001.50;4928163;29;20221;-75
2020/12/08 08:42:58;;;;;;;82.70;40.40;;;;;;;1.36;100.00;99998.94;4933221;29;20242;-75
2020/12/08 08:45:24;;;;;;;58.43;26.87;;;;;;;1.35;100.00;100004.91;4930170;29;20201;-75
2020/12/08 08:47:50;;;;;;;53.07;24.20;;;;;;;1.33;100.00;100010.03;4933740;29;20213;-75
2020/12/08 08:50:17;;;;;;;51.40;25.63;;;;;;;1.33;100.00;100012.63;4925030;28;20210;-75
2020/12/08 08:52:44;;;;;;;55.47;25.63;;;;;;;1.42;100.00;100014.34;4925717;29;20563;-75
2020/12/08 08:55:10;;;;;;;60.67;28.90;;;;;;;1.57;100.00;100017.81;4933956;28;20206;-75
2020/12/08 08:57:36;;;;;;;56.17;27.27;;;;;;;1.69;100.00;100020.38;4924616;29;20210;-73
2020/12/08 09:00:05;;;;;;;54.47;25.67;;;;;;;1.82;100.00;100022.09;4932957;28;20632;-73
2020/12/08 09:02:31;;;;;;;53.83;24.80;;;;;;;1.88;100.00;100013.50;4929556;29;20284;-73
2020/12/08 09:04:57;;;;;;;62.80;28.80;;;;;;;1.96;100.00;100019.50;4931132;28;20954;-73
2020/12/08 09:07:25;;;;;;;61.20;26.97;;;;;;;2.01;100.00;100020.38;4929439;29;20203;-73
2020/12/08 09:09:52;;;;;;;54.10;25.27;;;;;;;2.07;100.00;100017.78;4936436;29;20207;-73
2020/12/08 09:12:18;;;;;;;56.83;25.47;;;;;;;2.09;100.00;100012.63;4935042;28;20231;-73
2020/12/08 09:14:44;;;;;;;54.37;25.57;;;;;;;2.17;100.00;100015.22;4939613;29;20575;-76
2020/12/08 09:17:10;;;;;;;54.67;26.67;;;;;;;2.23;100.00;100015.19;4935522;29;20281;-77
2020/12/08 09:19:35;;;;;;;66.10;28.77;;;;;;;2.27;100.00;100011.78;4940524;29;20738;-76
2020/12/08 09:22:03;;;;;;;59.17;26.70;;;;;;;2.32;100.00;100010.03;4943798;28;20225;-76
2020/12/08 09:24:29;;;;;;;64.10;28.17;;;;;;;2.36;100.00;100000.59;4943370;28;20207;-76
2020/12/08 09:26:56;;;;;;;64.17;26.63;;;;;;;2.41;99.89;99996.28;4956808;28;20258;-77
2020/12/08 09:29:23;;;;;;;66.17;28.07;;;;;;;2.51;99.97;99994.53;4936432;28;20199;-75
2020/12/08 09:31:53;;;;;;;69.27;29.70;;;;;;;2.58;99.34;99996.25;4946693;28;20216;-73
2020/12/08 09:34:19;;;;;;;55.27;26.57;;;;;;;2.65;99.20;100001.34;4943099;28;20659;-75
2020/12/08 09:36:47;;;;;;;63.07;27.87;;;;;;;2.72;98.61;100003.91;4941400;28;20219;-74
2020/12/08 09:39:14;;;;;;;58.63;25.53;;;;;;;2.80;97.81;100008.16;4942264;28;20582;-74
2020/12/08 09:41:40;;;;;;;62.50;26.87;;;;;;;2.80;97.76;100005.59;4942743;28;20253;-73
2020/12/08 09:44:09;;;;;;;64.57;28.63;;;;;;;2.83;97.58;100008.16;4942971;28;20203;-74
2020/12/08 09:46:35;;;;;;;65.10;29.03;;;;;;;2.84;97.48;100012.44;4938912;29;20623;-73
2020/12/08 09:49:01;;;;;;;58.67;27.40;;;;;;;2.88;97.02;100010.69;4948511;28;20195;-73
2020/12/08 09:51:27;;;;;;;59.20;27.60;;;;;;;2.91;96.95;100012.41;4936676;28;20191;-73
2020/12/08 09:53:53;;;;;;;71.37;30.10;;;;;;;2.95;96.80;100007.22;4942014;29;20249;-74
2020/12/08 09:56:18;;;;;;;65.27;28.63;;;;;;;3.00;96.41;99996.91;4937787;28;20202;-73
2020/12/08 09:58:44;;;;;;;77.70;36.83;;;;;;;3.03;96.03;100005.47;4941425;28;20665;-73
2020/12/08 10:01:11;;;;;;;90.80;37.33;;;;;;;3.06;96.15;100002.06;4946308;28;20298;-74
2020/12/08 10:03:37;;;;;;;119.43;46.60;;;;;;;3.10;96.11;100001.16;4941761;29;20222;-74
2020/12/08 10:06:03;;;;;;;73.57;30.47;;;;;;;3.13;95.12;100005.41;4935051;28;20296;-72
2020/12/08 10:08:29;;;;;;;71.70;31.30;;;;;;;3.13;95.11;100002.84;4944613;28;20207;-73
2020/12/08 10:10:54;;;;;;;67.17;29.90;;;;;;;3.13;94.71;100002.84;4946359;28;20282;-73
2020/12/08 10:13:20;;;;;;;69.40;30.43;;;;;;;3.15;94.76;100003.69;4944352;28;20223;-74
2020/12/08 10:15:46;;;;;;;74.07;32.10;;;;;;;3.18;94.46;100007.13;4937378;29;20213;-74
2020/12/08 10:18:13;;;;;;;69.30;31.60;;;;;;;3.19;93.98;100007.97;4941422;29;20648;-74
2020/12/08 10:20:39;;;;;;;71.07;30.63;;;;;;;3.22;93.73;100008.81;4937594;28;20207;-74
2020/12/08 10:23:06;;;;;;;71.80;31.40;;;;;;;3.23;93.78;100009.66;4939957;28;20275;-74
2020/12/08 10:25:32;;;;;;;75.03;34.10;;;;;;;3.25;93.68;100015.66;4934090;29;20601;-74
2020/12/08 10:28:00;;;;;;;77.47;32.53;;;;;;;3.25;93.47;100013.09;4938015;29;20230;-73
2020/12/08 10:30:26;;;;;;;72.07;31.30;;;;;;;3.21;92.91;100006.25;4946408;28;20195;-74
2020/12/08 10:32:52;;;;;;;70.60;32.57;;;;;;;3.14;92.82;100008.00;4942910;28;20782;-74
2020/12/08 10:35:19;;;;;;;69.70;32.00;;;;;;;3.12;93.03;99998.56;4945023;28;20211;-74
2020/12/08 10:37:45;;;;;;;81.73;32.87;;;;;;;3.06;92.82;99996.03;4941074;29;20203;-73
2020/12/08 10:40:11;;;;;;;64.07;32.00;;;;;;;2.99;92.75;100000.34;4947140;28;20751;-76
2020/12/08 10:42:36;;;;;;;74.60;32.27;;;;;;;2.95;92.99;100007.22;4946562;29;20222;-76
2020/12/08 10:45:03;;;;;;;62.27;29.30;;;;;;;2.94;93.21;100015.00;4929143;29;20212;-76
2020/12/08 10:47:29;;;;;;;67.67;30.77;;;;;;;2.91;93.13;100017.56;4941960;29;20679;-76
2020/12/08 10:49:55;;;;;;;61.07;31.10;;;;;;;2.91;93.33;100027.88;4950108;28;20331;-76
2020/12/08 10:52:21;;;;;;;63.90;30.13;;;;;;;2.92;92.98;100029.56;4931988;28;20225;-75
2020/12/08 10:54:47;;;;;;;63.03;29.60;;;;;;;2.93;93.33;100023.56;4935374;29;20286;-76
2020/12/08 10:57:13;;;;;;;61.50;28.70;;;;;;;2.91;93.45;100026.16;4931955;29;20336;-76
2020/12/08 10:59:39;;;;;;;56.77;28.27;;;;;;;2.91;92.99;100033.03;4936598;29;20199;-76
2020/12/08 11:02:05;;;;;;;63.57;29.30;;;;;;;2.86;93.29;100030.44;4938919;28;20231;-73
2020/12/08 11:04:31;;;;;;;52.10;27.67;;;;;;;2.89;92.92;100033.03;4948932;28;20218;-73
2020/12/08 11:06:57;;;;;;;61.83;28.23;;;;;;;2.92;93.31;100037.28;4938718;28;20203;-74
2020/12/08 11:09:25;;;;;;;57.07;26.67;;;;;;;2.94;93.03;100033.88;4940492;28;20574;-74
2020/12/08 11:11:51;;;;;;;56.57;26.57;;;;;;;2.94;92.71;100030.44;4936320;28;20653;-74
2020/12/08 11:14:16;;;;;;;54.97;28.03;;;;;;;2.95;93.11;100039.84;4945279;28;20221;-74
2020/12/08 11:16:42;;;;;;;56.40;27.93;;;;;;;2.94;92.45;100038.16;4938169;29;20658;-74
2020/12/08 11:19:08;;;;;;;53.40;26.53;;;;;;;2.91;92.59;100041.59;4938060;29;20211;-74
2020/12/08 11:21:36;;;;;;;54.53;27.63;;;;;;;2.92;92.75;100039.88;4940941;29;20206;-73